Time;durP1;ratioP1;P1;durP2;ratioP2;P2;SDS_P1;SDS_P2;PMS_P1;PMS_P2;Temp;Humidity;BMP_temperature;BMP_pressure;BME280_temperature;BME280_humidity;BME280_pressure;Samples;Min_cycle;Max_cycle;Signal;HPM_P1;HPM_P2
2022/07/03 00:01:24;;;;;;;3.78;2.65;;;;;;;;;;5024588;28;20510;-63
2022/07/03 00:03:49;;;;;;;4.05;2.80;;;;;;;;;;5029685;28;20182;-63
2022/07/03 00:06:14;;;;;;;3.33;2.75;;;;;;;;;;5044943;28;20541;-63
2022/07/03 00:08:40;;;;;;;8.80;3.38;;;;;;;;;;5027452;28;20577;-63
2022/07/03 00:11:06;;;;;;;4.03;3.10;;;;;;;;;;5029370;28;20565;-63
2022/07/03 00:13:31;;;;;;;4.97;3.00;;;;;;;;;;5049025;28;20189;-63
2022/07/03 00:15:57;;;;;;;3.33;2.53;;;;;;;;;;5037446;28;20189;-63
2022/07/03 00:18:22;;;;;;;5.60;2.55;;;;;;;;;;5037916;28;20177;-63
2022/07/03 00:20:51;;;;;;;6.80;2.25;;;;;;;;;;5039125;28;20283;-63
2022/07/03 00:23:18;;;;;;;7.50;2.35;;;;;;;;;;5045404;28;20197;-64
2022/07/03 00:25:43;;;;;;;3.88;2.05;;;;;;;;;;5029715;28;20666;-63
2022/07/03 00:28:10;;;;;;;6.20;2.30;;;;;;;;;;5034475;28;20227;-63
2022/07/03 00:30:35;;;;;;;5.00;2.20;;;;;;;;;;5035732;28;20185;-63
2022/07/03 00:33:05;;;;;;;4.93;2.17;;;;;;;;;;5043082;28;20192;-63
2022/07/03 00:35:32;;;;;;;5.80;2.17;;;;;;;;;;5045354;28;20186;-64
2022/07/03 00:37:58;;;;;;;5.43;2.50;;;;;;;;;;5041170;28;20284;-63
2022/07/03 00:40:24;;;;;;;4.18;2.30;;;;;;;;;;5049268;28;20252;-62
2022/07/03 00:42:53;;;;;;;3.65;2.20;;;;;;;;;;5033311;28;20190;-63
2022/07/03 00:45:20;;;;;;;3.60;2.50;;;;;;;;;;5039438;28;20177;-62
2022/07/03 00:47:46;;;;;;;3.63;2.05;;;;;;;;;;5026640;28;20630;-63
2022/07/03 00:50:11;;;;;;;5.78;2.20;;;;;;;;;;5026368;28;20201;-63
2022/07/03 00:52:38;;;;;;;3.50;2.30;;;;;;;;;;5024364;28;20189;-63
2022/07/03 00:55:07;;;;;;;4.35;2.42;;;;;;;;;;5020920;28;20656;-65
2022/07/03 00:57:35;;;;;;;2.53;2.25;;;;;;;;;;5024739;28;20212;-63
2022/07/03 01:00:01;;;;;;;4.65;2.40;;;;;;;;;;5025287;28;20215;-63
2022/07/03 01:02:44;;;;;;;4.05;2.38;;;;;;;;;;5025211;28;20297;-63
2022/07/03 01:05:19;;;;;;;6.38;2.95;;;;;;;;;;5027646;28;20216;-63
2022/07/03 01:08:10;;;;;;;6.03;2.95;;;;;;;;;;5038259;28;20274;-63
2022/07/03 01:11:07;;;;;;;3.05;2.65;;;;;;;;;;5033564;28;20629;-63
2022/07/03 01:13:52;;;;;;;5.07;2.88;;;;;;;;;;5021442;28;20190;-63
2022/07/03 01:16:30;;;;;;;3.30;3.00;;;;;;;;;;5033983;28;20209;-63
2022/07/03 01:19:10;;;;;;;4.13;2.97;;;;;;;;;;5027637;28;20178;-63
2022/07/03 01:21:40;;;;;;;7.07;3.20;;;;;;;;;;5017639;28;20282;-63
2022/07/03 01:24:39;;;;;;;5.05;3.30;;;;;;;;;;5041455;28;20178;-64
2022/07/03 01:27:10;;;;;;;3.70;3.30;;;;;;;;;;5021290;28;20226;-63
2022/07/03 01:29:55;;;;;;;3.92;3.53;;;;;;;;;;5026902;28;20599;-62
2022/07/03 01:32:24;;;;;;;3.78;3.40;;;;;;;;;;5014116;28;20214;-63
2022/07/03 01:34:52;;;;;;;4.53;3.42;;;;;;;;;;5020134;28;20204;-64
2022/07/03 01:37:21;;;;;;;4.75;3.72;;;;;;;;;;5023551;28;20269;-63
2022/07/03 01:39:51;;;;;;;7.18;3.80;;;;;;;;;;5028153;28;20257;-63
2022/07/03 01:42:18;;;;;;;4.43;3.88;;;;;;;;;;5037384;28;20178;-62
2022/07/03 01:44:47;;;;;;;6.53;4.75;;;;;;;;;;5034597;28;20227;-63
2022/07/03 01:47:14;;;;;;;4.53;4.13;;;;;;;;;;5020813;28;20312;-64
2022/07/03 01:49:41;;;;;;;7.70;4.22;;;;;;;;;;5023486;28;20621;-63
2022/07/03 01:52:06;;;;;;;5.05;4.55;;;;;;;;;;5032761;28;20281;-62
2022/07/03 01:54:33;;;;;;;5.43;4.72;;;;;;;;;;5038655;28;20638;-63
2022/07/03 01:57:01;;;;;;;4.90;4.50;;;;;;;;;;5036465;28;20633;-63
2022/07/03 01:59:26;;;;;;;8.70;5.10;;;;;;;;;;5044605;28;20628;-63
2022/07/03 02:02:21;;;;;;;7.32;4.88;;;;;;;;;;5042000;28;20265;-64
2022/07/03 02:05:08;;;;;;;6.90;5.18;;;;;;;;;;5034700;28;20189;-63
2022/07/03 02:07:56;;;;;;;5.60;4.70;;;;;;;;;;5038533;28;20575;-63
2022/07/03 02:10:33;;;;;;;10.10;6.43;;;;;;;;;;5040891;28;20224;-63
2022/07/03 02:13:07;;;;;;;8.10;5.68;;;;;;;;;;5034991;28;20177;-62
2022/07/03 02:15:35;;;;;;;6.35;5.68;;;;;;;;;;5040673;28;20177;-63
2022/07/03 02:18:10;;;;;;;7.90;6.00;;;;;;;;;;5037534;28;20556;-63
2022/07/03 02:20:38;;;;;;;6.93;5.90;;;;;;;;;;5036152;28;20258;-63
2022/07/03 02:23:06;;;;;;;6.55;5.82;;;;;;;;;;5036715;28;20186;-63
2022/07/03 02:25:36;;;;;;;7.35;6.53;;;;;;;;;;5038324;28;20186;-63
2022/07/03 02:28:06;;;;;;;6.72;5.45;;;;;;;;;;5042210;28;20229;-63
2022/07/03 02:30:35;;;;;;;5.40;4.90;;;;;;;;;;5041782;28;20259;-63
2022/07/03 02:33:01;;;;;;;6.55;5.25;;;;;;;;;;5035366;28;20189;-63
2022/07/03 02:35:32;;;;;;;8.55;5.13;;;;;;;;;;5041750;28;20191;-63
2022/07/03 02:38:19;;;;;;;6.43;5.78;;;;;;;;;;5040751;28;20185;-62
2022/07/03 02:40:56;;;;;;;6.22;5.43;;;;;;;;;;5037568;28;20186;-63
2022/07/03 02:43:54;;;;;;;8.80;5.60;;;;;;;;;;5035604;28;20688;-63
2022/07/03 02:46:49;;;;;;;8.10;5.25;;;;;;;;;;5039919;28;20524;-63
2022/07/03 02:49:14;;;;;;;6.88;4.72;;;;;;;;;;5038140;28;20235;-64
2022/07/03 02:51:46;;;;;;;12.43;5.63;;;;;;;;;;5041031;28;20178;-62
2022/07/03 02:54:14;;;;;;;6.72;5.00;;;;;;;;;;5039197;28;20177;-62
2022/07/03 02:56:58;;;;;;;7.55;5.32;;;;;;;;;;5044480;28;20178;-62
2022/07/03 02:59:35;;;;;;;6.30;5.30;;;;;;;;;;5043516;28;20481;-62
2022/07/03 03:02:13;;;;;;;8.20;5.43;;;;;;;;;;5044593;28;20196;-62
2022/07/03 03:04:43;;;;;;;6.70;5.80;;;;;;;;;;5042162;28;20546;-62
2022/07/03 03:07:15;;;;;;;6.22;5.63;;;;;;;;;;5041645;28;20735;-63
2022/07/03 03:09:43;;;;;;;9.02;5.72;;;;;;;;;;5031901;28;20251;-63
2022/07/03 03:12:11;;;;;;;7.55;6.18;;;;;;;;;;5036517;28;20834;-63
2022/07/03 03:14:42;;;;;;;8.02;6.20;;;;;;;;;;5038799;28;20428;-63
2022/07/03 03:17:12;;;;;;;7.15;6.35;;;;;;;;;;5036686;28;20237;-63
2022/07/03 03:19:44;;;;;;;8.00;6.63;;;;;;;;;;5017612;28;20201;-62
2022/07/03 03:22:38;;;;;;;7.15;6.45;;;;;;;;;;5026600;28;20178;-63
2022/07/03 03:25:04;;;;;;;8.00;5.70;;;;;;;;;;5021740;28;20190;-63
2022/07/03 03:27:29;;;;;;;6.57;5.25;;;;;;;;;;5035238;28;20249;-63
2022/07/03 03:29:55;;;;;;;9.82;5.97;;;;;;;;;;5032181;28;20178;-63
2022/07/03 03:32:21;;;;;;;7.60;6.38;;;;;;;;;;5022893;28;20558;-63
2022/07/03 03:34:47;;;;;;;8.13;7.32;;;;;;;;;;5034202;28;20650;-62
2022/07/03 03:37:12;;;;;;;8.85;6.93;;;;;;;;;;5036885;28;20202;-63
2022/07/03 03:39:38;;;;;;;8.65;7.07;;;;;;;;;;5025243;28;20190;-64
2022/07/03 03:42:04;;;;;;;11.25;7.05;;;;;;;;;;5025708;28;20191;-63
2022/07/03 03:44:29;;;;;;;12.73;7.03;;;;;;;;;;5042271;28;20268;-63
2022/07/03 03:46:55;;;;;;;8.00;6.90;;;;;;;;;;5032195;28;20266;-63
2022/07/03 03:49:21;;;;;;;9.30;6.88;;;;;;;;;;5033473;28;20246;-63
2022/07/03 03:51:46;;;;;;;8.45;6.70;;;;;;;;;;5027135;28;20659;-62
2022/07/03 03:54:11;;;;;;;7.15;6.45;;;;;;;;;;5036702;28;20189;-63
2022/07/03 03:56:37;;;;;;;6.97;6.22;;;;;;;;;;5033399;28;20261;-63
2022/07/03 03:59:02;;;;;;;8.18;6.13;;;;;;;;;;5045378;28;20272;-63
2022/07/03 04:01:27;;;;;;;7.22;5.95;;;;;;;;;;5024699;28;20213;-63
2022/07/03 04:03:53;;;;;;;6.68;5.25;;;;;;;;;;5028795;28;20193;-63
2022/07/03 04:06:19;;;;;;;9.35;5.75;;;;;;;;;;5043210;28;20193;-63
2022/07/03 04:08:45;;;;;;;7.93;5.40;;;;;;;;;;5047104;28;20185;-63
2022/07/03 04:11:10;;;;;;;7.68;4.75;;;;;;;;;;5037457;28;20179;-63
2022/07/03 04:13:35;;;;;;;5.90;4.57;;;;;;;;;;5033670;28;20621;-62
2022/07/03 04:16:01;;;;;;;7.30;4.95;;;;;;;;;;5039561;28;20193;-63
2022/07/03 04:18:26;;;;;;;7.07;4.32;;;;;;;;;;5019029;28;20198;-63
2022/07/03 04:20:52;;;;;;;8.25;5.03;;;;;;;;;;5032416;28;20194;-63
2022/07/03 04:23:17;;;;;;;4.57;4.07;;;;;;;;;;5024323;28;20198;-61
2022/07/03 04:25:43;;;;;;;5.93;3.95;;;;;;;;;;5026123;28;20178;-63
2022/07/03 04:28:09;;;;;;;5.05;4.10;;;;;;;;;;5023765;28;20227;-63
2022/07/03 04:30:34;;;;;;;6.55;3.47;;;;;;;;;;5043286;28;20174;-64
2022/07/03 04:33:00;;;;;;;10.43;3.50;;;;;;;;;;5028184;28;20251;-64
2022/07/03 04:35:25;;;;;;;5.95;3.65;;;;;;;;;;5029891;28;20177;-64
2022/07/03 04:37:50;;;;;;;5.55;2.90;;;;;;;;;;5027687;28;20711;-63
2022/07/03 04:40:16;;;;;;;8.82;3.05;;;;;;;;;;5028694;28;20194;-64
2022/07/03 04:42:41;;;;;;;5.28;2.60;;;;;;;;;;5032862;28;20197;-63
2022/07/03 04:45:07;;;;;;;8.52;2.80;;;;;;;;;;5043738;28;20207;-63
2022/07/03 04:47:33;;;;;;;5.10;2.47;;;;;;;;;;5023177;28;20225;-64
2022/07/03 04:49:58;;;;;;;4.40;2.58;;;;;;;;;;5028435;28;20194;-63
2022/07/03 04:52:24;;;;;;;3.80;2.63;;;;;;;;;;5029403;28;20642;-62
2022/07/03 04:54:49;;;;;;;4.65;2.17;;;;;;;;;;5029213;28;20257;-64
2022/07/03 04:57:15;;;;;;;3.88;2.80;;;;;;;;;;5029608;28;20393;-64
2022/07/03 04:59:40;;;;;;;3.42;2.55;;;;;;;;;;5030445;28;20229;-64
2022/07/03 05:02:06;;;;;;;5.47;2.47;;;;;;;;;;5015427;28;20272;-64
2022/07/03 05:04:31;;;;;;;4.82;2.30;;;;;;;;;;5028052;28;20649;-64
2022/07/03 05:06:56;;;;;;;4.22;2.40;;;;;;;;;;5028540;28;20182;-63
2022/07/03 05:09:22;;;;;;;4.93;2.47;;;;;;;;;;5034011;28;20181;-64
2022/07/03 05:11:47;;;;;;;3.33;2.13;;;;;;;;;;5030602;28;20201;-64
2022/07/03 05:14:13;;;;;;;3.45;1.95;;;;;;;;;;5011705;28;20273;-64
2022/07/03 05:16:38;;;;;;;6.30;2.10;;;;;;;;;;5024132;28;20198;-63
2022/07/03 05:19:04;;;;;;;3.10;2.42;;;;;;;;;;5028419;28;20662;-63
2022/07/03 05:21:31;;;;;;;4.60;2.70;;;;;;;;;;5024758;28;20236;-64
2022/07/03 05:23:56;;;;;;;5.45;2.63;;;;;;;;;;5028571;28;20174;-64
2022/07/03 05:26:21;;;;;;;4.82;2.22;;;;;;;;;;5033506;28;20717;-64
2022/07/03 05:28:47;;;;;;;9.98;2.60;;;;;;;;;;5035165;28;20638;-63
2022/07/03 05:31:13;;;;;;;4.18;2.38;;;;;;;;;;5037802;28;20572;-63
2022/07/03 05:33:38;;;;;;;3.38;2.45;;;;;;;;;;5034653;28;20190;-64
2022/07/03 05:36:04;;;;;;;2.58;2.33;;;;;;;;;;5040241;28;20676;-63
2022/07/03 05:41:15;;;;;;;2.92;2.50;;;;;;;;;;5024317;28;20205;-63
2022/07/03 05:43:40;;;;;;;4.43;2.60;;;;;;;;;;5033104;28;20650;-63
2022/07/03 05:46:06;;;;;;;6.55;3.03;;;;;;;;;;5026824;28;20292;-63
2022/07/03 05:48:31;;;;;;;4.20;3.15;;;;;;;;;;5018466;28;20213;-63
2022/07/03 05:50:57;;;;;;;4.35;3.13;;;;;;;;;;5032918;28;20208;-63
2022/07/03 05:53:22;;;;;;;7.28;3.15;;;;;;;;;;5027251;28;20615;-63
2022/07/03 05:55:48;;;;;;;4.07;3.00;;;;;;;;;;5035265;28;20209;-63
2022/07/03 05:58:14;;;;;;;6.60;2.88;;;;;;;;;;5022193;28;20217;-63
2022/07/03 06:00:39;;;;;;;5.97;2.70;;;;;;;;;;5026207;28;20276;-63
2022/07/03 06:03:05;;;;;;;6.13;2.78;;;;;;;;;;5031157;28;20178;-63
2022/07/03 06:05:32;;;;;;;4.00;2.90;;;;;;;;;;5029126;28;20186;-63
2022/07/03 06:07:58;;;;;;;3.33;2.63;;;;;;;;;;5026146;28;20171;-64
2022/07/03 06:10:23;;;;;;;5.82;2.65;;;;;;;;;;5017980;28;20602;-64
2022/07/03 06:12:49;;;;;;;3.17;2.47;;;;;;;;;;5036360;28;20514;-64
2022/07/03 06:15:14;;;;;;;4.97;2.90;;;;;;;;;;5021975;28;20179;-63
2022/07/03 06:17:39;;;;;;;4.90;2.60;;;;;;;;;;5025224;28;20213;-63
2022/07/03 06:20:06;;;;;;;4.55;2.28;;;;;;;;;;5025846;28;20398;-63
2022/07/03 06:22:32;;;;;;;7.28;3.22;;;;;;;;;;5035270;28;20190;-63
2022/07/03 06:24:57;;;;;;;4.25;2.35;;;;;;;;;;5030980;28;20182;-63
2022/07/03 06:27:22;;;;;;;5.65;2.63;;;;;;;;;;5024762;28;20241;-63
2022/07/03 06:29:52;;;;;;;8.07;2.47;;;;;;;;;;5018268;28;20218;-64
2022/07/03 06:32:17;;;;;;;3.90;2.30;;;;;;;;;;5045027;28;20247;-63
2022/07/03 06:34:43;;;;;;;4.40;2.10;;;;;;;;;;5028705;28;20194;-63
2022/07/03 06:37:09;;;;;;;4.95;2.53;;;;;;;;;;5013195;28;20198;-64
2022/07/03 06:39:35;;;;;;;3.92;1.95;;;;;;;;;;5019571;28;20182;-64
2022/07/03 06:42:00;;;;;;;4.22;2.15;;;;;;;;;;5020529;28;20210;-64
2022/07/03 06:44:25;;;;;;;7.40;2.17;;;;;;;;;;5021767;28;20277;-64
2022/07/03 06:46:51;;;;;;;2.55;1.77;;;;;;;;;;5025450;28;20192;-64
2022/07/03 06:49:16;;;;;;;3.28;2.00;;;;;;;;;;5034317;28;20186;-64
2022/07/03 06:51:42;;;;;;;2.65;1.67;;;;;;;;;;5032188;28;20264;-63
2022/07/03 06:54:07;;;;;;;2.72;1.67;;;;;;;;;;5039231;28;20247;-63
2022/07/03 06:56:32;;;;;;;2.65;1.30;;;;;;;;;;5037252;28;20185;-63
2022/07/03 06:58:58;;;;;;;2.88;1.45;;;;;;;;;;5025994;28;20308;-63
2022/07/03 07:01:23;;;;;;;2.45;1.17;;;;;;;;;;5038991;28;20181;-64
2022/07/03 07:03:48;;;;;;;4.60;1.27;;;;;;;;;;5039793;28;20632;-63
2022/07/03 07:06:14;;;;;;;4.47;1.20;;;;;;;;;;5030918;28;20193;-64
2022/07/03 07:08:39;;;;;;;2.72;0.98;;;;;;;;;;5031502;28;20174;-63
2022/07/03 07:11:04;;;;;;;4.55;0.80;;;;;;;;;;5035200;28;20353;-64
2022/07/03 07:13:30;;;;;;;3.03;1.13;;;;;;;;;;5033875;28;20174;-64
2022/07/03 07:15:55;;;;;;;3.50;1.13;;;;;;;;;;5029687;28;20659;-63
2022/07/03 07:18:20;;;;;;;2.67;0.80;;;;;;;;;;5038675;28;20197;-63
2022/07/03 07:20:46;;;;;;;3.40;1.60;;;;;;;;;;5034612;28;20673;-63
2022/07/03 07:23:11;;;;;;;4.30;1.25;;;;;;;;;;5030370;28;20182;-63
2022/07/03 07:25:37;;;;;;;4.65;1.15;;;;;;;;;;5029887;28;20182;-63
2022/07/03 07:28:02;;;;;;;2.72;1.20;;;;;;;;;;5026197;28;20717;-63
2022/07/03 07:30:28;;;;;;;4.07;1.40;;;;;;;;;;5031480;28;20189;-63
2022/07/03 07:32:53;;;;;;;1.42;1.08;;;;;;;;;;5041417;28;20209;-64
2022/07/03 07:35:18;;;;;;;1.17;0.80;;;;;;;;;;5041832;28;20739;-63
2022/07/03 07:37:44;;;;;;;2.35;0.80;;;;;;;;;;5043639;28;20233;-63
2022/07/03 07:40:10;;;;;;;1.45;1.05;;;;;;;;;;5037787;28;20236;-64
2022/07/03 07:42:36;;;;;;;2.60;0.93;;;;;;;;;;5026100;28;20186;-63
2022/07/03 07:45:01;;;;;;;4.30;0.90;;;;;;;;;;5043296;28;20754;-63
2022/07/03 07:47:26;;;;;;;1.83;1.00;;;;;;;;;;5038560;28;20298;-63
2022/07/03 07:49:52;;;;;;;2.13;1.00;;;;;;;;;;5042128;28;20260;-63
2022/07/03 07:52:17;;;;;;;3.90;1.60;;;;;;;;;;5045800;28;20719;-63
2022/07/03 07:54:42;;;;;;;2.55;0.90;;;;;;;;;;5043109;28;20186;-63
2022/07/03 07:57:08;;;;;;;2.75;1.00;;;;;;;;;;5038459;28;20178;-63
2022/07/03 07:59:33;;;;;;;2.70;1.30;;;;;;;;;;5027571;28;20404;-63
2022/07/03 08:07:26;;;;;;;3.33;1.20;;;;;;;;;;5018831;28;20205;-63
2022/07/03 08:09:53;;;;;;;2.67;1.23;;;;;;;;;;5033540;28;20189;-63
2022/07/03 08:12:19;;;;;;;2.13;1.10;;;;;;;;;;5045775;28;20185;-63
2022/07/03 08:14:44;;;;;;;2.85;1.00;;;;;;;;;;5041873;28;20188;-63
2022/07/03 08:17:10;;;;;;;2.80;1.20;;;;;;;;;;5044056;28;20576;-63
2022/07/03 08:19:35;;;;;;;3.80;1.40;;;;;;;;;;5035265;28;20185;-62
2022/07/03 08:22:01;;;;;;;2.22;1.38;;;;;;;;;;5026974;28;20174;-64
2022/07/03 08:24:26;;;;;;;3.05;1.10;;;;;;;;;;5028879;28;20178;-62
2022/07/03 08:26:52;;;;;;;4.97;1.25;;;;;;;;;;4328384;28;10000816;-63
2022/07/03 08:29:18;;;;;;;3.85;1.13;;;;;;;;;;5021483;28;20193;-63
2022/07/03 08:31:43;;;;;;;3.53;1.40;;;;;;;;;;5023649;28;20205;-63
2022/07/03 08:34:12;;;;;;;3.70;1.10;;;;;;;;;;5035415;28;20618;-62
2022/07/03 08:36:40;;;;;;;3.03;1.00;;;;;;;;;;5020558;28;20264;-63
2022/07/03 08:39:05;;;;;;;4.25;1.40;;;;;;;;;;5032616;28;20217;-65
2022/07/03 08:41:32;;;;;;;3.63;1.67;;;;;;;;;;5039960;28;20269;-65
2022/07/03 08:43:59;;;;;;;2.63;1.40;;;;;;;;;;5036556;28;20633;-62
2022/07/03 08:46:26;;;;;;;4.53;1.55;;;;;;;;;;5029523;28;20212;-62
2022/07/03 08:48:53;;;;;;;3.17;1.38;;;;;;;;;;5013055;28;20724;-63
2022/07/03 08:51:21;;;;;;;3.60;1.38;;;;;;;;;;5028788;28;20208;-63
2022/07/03 08:53:47;;;;;;;2.90;1.30;;;;;;;;;;5025440;28;20272;-63
2022/07/03 08:56:13;;;;;;;3.58;1.67;;;;;;;;;;5025854;28;20197;-62
2022/07/03 08:58:38;;;;;;;3.17;1.40;;;;;;;;;;5024682;28;20190;-63
2022/07/03 09:01:04;;;;;;;1.48;0.98;;;;;;;;;;5014110;28;20694;-63
2022/07/03 09:03:30;;;;;;;6.03;1.70;;;;;;;;;;5021884;28;20638;-62
2022/07/03 09:05:57;;;;;;;6.82;1.48;;;;;;;;;;5024654;28;20194;-63
2022/07/03 09:08:23;;;;;;;6.20;1.30;;;;;;;;;;5036713;28;20178;-62
2022/07/03 09:10:49;;;;;;;2.55;1.40;;;;;;;;;;5026357;28;20213;-63
2022/07/03 09:13:14;;;;;;;4.40;1.58;;;;;;;;;;5038777;28;20181;-62
2022/07/03 09:15:40;;;;;;;2.83;1.60;;;;;;;;;;5032248;28;20192;-62
2022/07/03 09:18:07;;;;;;;3.42;1.42;;;;;;;;;;5043266;28;20194;-63
2022/07/03 09:20:35;;;;;;;4.45;1.58;;;;;;;;;;5028025;28;20201;-62
2022/07/03 09:23:19;;;;;;;4.28;1.88;;;;;;;;;;5036822;28;20184;-62
2022/07/03 09:25:55;;;;;;;3.45;1.98;;;;;;;;;;5025837;28;20189;-64
2022/07/03 09:28:22;;;;;;;4.40;1.63;;;;;;;;;;5034756;28;20225;-64
2022/07/03 09:31:00;;;;;;;3.83;1.70;;;;;;;;;;5045025;28;20185;-64
2022/07/03 09:33:26;;;;;;;3.85;1.73;;;;;;;;;;5034240;28;20213;-63
2022/07/03 09:35:54;;;;;;;2.92;1.33;;;;;;;;;;5015919;28;20272;-63
2022/07/03 09:38:19;;;;;;;3.05;1.50;;;;;;;;;;5024580;28;20289;-63
2022/07/03 09:40:54;;;;;;;2.80;1.17;;;;;;;;;;5028048;28;20261;-62
2022/07/03 09:43:32;;;;;;;3.03;1.42;;;;;;;;;;5027559;28;20190;-64
2022/07/03 09:46:02;;;;;;;2.17;1.10;;;;;;;;;;5037283;28;20178;-64
2022/07/03 09:48:41;;;;;;;5.32;1.20;;;;;;;;;;5043996;28;20190;-64
2022/07/03 09:51:19;;;;;;;2.75;1.13;;;;;;;;;;5026412;28;20736;-64
2022/07/03 09:53:46;;;;;;;3.30;1.20;;;;;;;;;;5029812;28;20708;-63
2022/07/03 09:56:12;;;;;;;2.17;0.93;;;;;;;;;;5034883;28;20174;-62
2022/07/03 09:58:38;;;;;;;3.42;1.05;;;;;;;;;;5024452;28;20205;-62
2022/07/03 10:01:17;;;;;;;1.88;1.13;;;;;;;;;;5033860;28;20197;-63
2022/07/03 10:03:42;;;;;;;3.25;1.00;;;;;;;;;;5018232;28;20193;-62
2022/07/03 10:06:07;;;;;;;5.10;1.20;;;;;;;;;;5033036;28;20557;-62
2022/07/03 10:08:33;;;;;;;2.70;1.17;;;;;;;;;;5030592;28;20198;-63
2022/07/03 10:10:59;;;;;;;2.03;1.00;;;;;;;;;;5024622;28;20182;-64
2022/07/03 10:13:24;;;;;;;1.70;1.00;;;;;;;;;;5022654;28;20178;-63
2022/07/03 10:15:50;;;;;;;3.25;1.23;;;;;;;;;;5022586;28;20252;-62
2022/07/03 10:18:21;;;;;;;3.28;1.40;;;;;;;;;;5017137;28;20222;-64
2022/07/03 10:20:48;;;;;;;4.57;1.55;;;;;;;;;;5021125;28;20509;-63
2022/07/03 10:23:20;;;;;;;4.07;0.95;;;;;;;;;;5032467;28;20546;-64
2022/07/03 10:25:46;;;;;;;2.15;0.85;;;;;;;;;;5023016;28;20190;-63
2022/07/03 10:28:14;;;;;;;1.90;0.85;;;;;;;;;;5027236;28;20264;-63
2022/07/03 10:30:42;;;;;;;2.63;0.90;;;;;;;;;;5019228;28;20186;-62
2022/07/03 10:33:07;;;;;;;1.92;1.20;;;;;;;;;;5028264;28;20265;-64
2022/07/03 10:35:37;;;;;;;2.00;0.90;;;;;;;;;;5026366;28;20201;-62
2022/07/03 10:38:02;;;;;;;4.20;1.00;;;;;;;;;;5024738;28;20964;-63
2022/07/03 10:46:30;;;;;;;2.30;1.00;;;;;;;;;;5026148;28;20564;-63
2022/07/03 10:49:10;;;;;;;2.72;0.98;;;;;;;;;;5031693;28;20298;-63
2022/07/03 10:51:44;;;;;;;2.42;1.10;;;;;;;;;;5027926;28;20194;-64
2022/07/03 10:54:23;;;;;;;1.40;1.30;;;;;;;;;;5024159;28;20182;-63
2022/07/03 10:56:57;;;;;;;1.88;0.90;;;;;;;;;;5027791;28;20637;-63
2022/07/03 10:59:23;;;;;;;7.45;0.80;;;;;;;;;;5030982;28;20323;-63
2022/07/03 11:01:48;;;;;;;2.65;0.90;;;;;;;;;;5027995;28;20733;-63
2022/07/03 11:04:14;;;;;;;1.77;0.80;;;;;;;;;;5024391;28;20190;-64
2022/07/03 11:06:42;;;;;;;2.78;0.82;;;;;;;;;;5026577;28;20206;-63
2022/07/03 11:09:09;;;;;;;1.75;0.70;;;;;;;;;;5029937;28;20191;-64
2022/07/03 11:11:54;;;;;;;2.35;0.73;;;;;;;;;;5028186;28;20213;-63
2022/07/03 11:14:25;;;;;;;2.33;0.93;;;;;;;;;;5027119;28;20173;-63
2022/07/03 11:17:19;;;;;;;2.15;0.90;;;;;;;;;;5027139;28;20544;-63
2022/07/03 11:20:23;;;;;;;2.42;0.80;;;;;;;;;;5025045;28;20198;-63
2022/07/03 11:22:49;;;;;;;2.20;0.85;;;;;;;;;;5015402;28;20226;-64
2022/07/03 11:25:16;;;;;;;2.08;0.47;;;;;;;;;;5020340;28;20186;-63
2022/07/03 11:27:42;;;;;;;1.75;0.70;;;;;;;;;;5023922;28;20698;-66
2022/07/03 11:30:08;;;;;;;1.30;0.55;;;;;;;;;;5028058;28;20186;-62
2022/07/03 11:32:57;;;;;;;3.05;0.70;;;;;;;;;;5022130;28;20305;-64
2022/07/03 11:35:49;;;;;;;2.67;0.60;;;;;;;;;;5021599;28;20682;-62
2022/07/03 11:38:17;;;;;;;2.47;0.52;;;;;;;;;;5024769;28;20212;-63
2022/07/03 11:40:45;;;;;;;5.00;0.90;;;;;;;;;;5026773;28;20669;-67
2022/07/03 11:43:12;;;;;;;3.13;0.70;;;;;;;;;;5029165;28;20269;-63
2022/07/03 11:45:39;;;;;;;0.82;0.60;;;;;;;;;;5015109;28;20178;-64
2022/07/03 11:48:13;;;;;;;1.77;0.70;;;;;;;;;;5018311;28;20209;-63
2022/07/03 11:50:43;;;;;;;0.93;0.60;;;;;;;;;;5017748;28;20244;-64
2022/07/03 11:53:20;;;;;;;4.25;0.90;;;;;;;;;;5018625;28;20200;-64
2022/07/03 11:55:47;;;;;;;1.65;0.68;;;;;;;;;;5018010;28;20661;-63
2022/07/03 11:58:12;;;;;;;1.15;0.40;;;;;;;;;;5018283;28;20243;-65
2022/07/03 12:00:38;;;;;;;0.75;0.60;;;;;;;;;;5015876;28;20239;-63
2022/07/03 12:03:03;;;;;;;1.98;0.70;;;;;;;;;;5019247;28;20943;-62
2022/07/03 12:05:28;;;;;;;0.80;0.45;;;;;;;;;;5020199;28;20182;-64
2022/07/03 12:08:04;;;;;;;4.63;0.73;;;;;;;;;;5021318;28;20277;-63
2022/07/03 12:10:40;;;;;;;1.35;0.63;;;;;;;;;;5019350;28;20592;-62
2022/07/03 12:13:22;;;;;;;1.58;0.80;;;;;;;;;;5020206;28;20299;-64
2022/07/03 12:15:49;;;;;;;2.80;0.63;;;;;;;;;;5020750;28;20207;-63
2022/07/03 12:18:15;;;;;;;2.70;1.40;;;;;;;;;;5019277;28;20213;-64
2022/07/03 12:20:41;;;;;;;3.38;0.90;;;;;;;;;;5017577;28;20603;-66
2022/07/03 12:23:07;;;;;;;1.98;0.70;;;;;;;;;;5017579;28;20178;-63
2022/07/03 12:25:39;;;;;;;3.92;0.70;;;;;;;;;;5018115;28;20201;-63
2022/07/03 12:28:04;;;;;;;1.85;0.50;;;;;;;;;;5019485;28;20242;-64
2022/07/03 12:30:30;;;;;;;0.88;0.60;;;;;;;;;;5017654;28;20198;-68
2022/07/03 12:32:57;;;;;;;0.43;0.38;;;;;;;;;;5018490;28;20488;-63
2022/07/03 12:35:26;;;;;;;0.88;0.80;;;;;;;;;;5019560;28;20173;-63
2022/07/03 12:37:51;;;;;;;0.47;0.47;;;;;;;;;;5018283;28;20220;-64
2022/07/03 12:40:18;;;;;;;1.48;0.60;;;;;;;;;;5017629;28;20182;-63
2022/07/03 12:42:51;;;;;;;0.90;0.50;;;;;;;;;;5017835;28;20564;-63
2022/07/03 12:45:19;;;;;;;2.10;0.68;;;;;;;;;;5019039;28;20186;-63
2022/07/03 12:47:45;;;;;;;4.70;0.90;;;;;;;;;;5017135;28;20194;-65
2022/07/03 12:50:11;;;;;;;1.38;0.63;;;;;;;;;;5018676;28;20190;-64
2022/07/03 12:52:53;;;;;;;2.15;0.50;;;;;;;;;;5016766;28;20190;-64
2022/07/03 12:55:29;;;;;;;1.08;0.57;;;;;;;;;;5018976;28;20201;-63
2022/07/03 13:01:34;;;;;;;1.90;0.65;;;;;;;;;;4994107;28;20213;-63
2022/07/03 13:04:00;;;;;;;1.92;0.50;;;;;;;;;;5014105;28;20532;-63
2022/07/03 13:06:25;;;;;;;2.17;0.60;;;;;;;;;;5018477;28;20186;-64
2022/07/03 13:08:53;;;;;;;1.25;0.50;;;;;;;;;;5017223;28;20665;-64
2022/07/03 13:11:31;;;;;;;2.88;0.70;;;;;;;;;;5017132;28;20736;-62
2022/07/03 13:14:07;;;;;;;2.25;0.65;;;;;;;;;;5019316;28;20189;-64
2022/07/03 13:16:59;;;;;;;2.97;0.68;;;;;;;;;;5020776;28;20197;-63
2022/07/03 13:19:27;;;;;;;2.85;0.40;;;;;;;;;;5015043;28;20627;-65
2022/07/03 13:21:54;;;;;;;1.95;0.88;;;;;;;;;;5017545;28;20490;-65
2022/07/03 13:24:21;;;;;;;0.93;0.50;;;;;;;;;;5019524;28;20196;-66
2022/07/03 13:26:48;;;;;;;2.45;0.47;;;;;;;;;;5018931;28;20244;-64
2022/07/03 13:29:13;;;;;;;4.35;1.67;;;;;;;;;;5016816;28;20816;-63
2022/07/03 13:31:39;;;;;;;2.88;0.70;;;;;;;;;;4322665;28;10000714;-66
2022/07/03 13:34:05;;;;;;;2.63;0.75;;;;;;;;;;5011557;28;20190;-64
2022/07/03 13:36:32;;;;;;;0.82;0.73;;;;;;;;;;5009233;28;21098;-63
2022/07/03 13:38:58;;;;;;;1.60;0.63;;;;;;;;;;5013648;28;20247;-64
2022/07/03 13:41:24;;;;;;;1.23;0.63;;;;;;;;;;5012359;28;20962;-64
2022/07/03 13:43:51;;;;;;;2.25;0.60;;;;;;;;;;5007199;28;20181;-64
2022/07/03 13:46:17;;;;;;;3.25;0.93;;;;;;;;;;5010423;28;20193;-67
2022/07/03 13:48:42;;;;;;;2.83;0.70;;;;;;;;;;5008126;28;20650;-65
2022/07/03 13:51:08;;;;;;;3.20;0.70;;;;;;;;;;5009965;28;20183;-66
2022/07/03 13:53:34;;;;;;;5.95;1.10;;;;;;;;;;5010714;28;20626;-65
2022/07/03 13:56:00;;;;;;;3.60;0.90;;;;;;;;;;5010549;28;20678;-65
2022/07/03 13:58:25;;;;;;;2.92;0.70;;;;;;;;;;5009785;28;20201;-63
2022/07/03 14:00:52;;;;;;;4.28;0.80;;;;;;;;;;5010068;28;20908;-63
2022/07/03 14:03:17;;;;;;;3.85;0.85;;;;;;;;;;5010751;28;20276;-64
2022/07/03 14:05:44;;;;;;;1.77;0.90;;;;;;;;;;5010591;28;20202;-63
2022/07/03 14:08:09;;;;;;;3.17;0.90;;;;;;;;;;5009305;28;20182;-64
2022/07/03 14:10:35;;;;;;;1.92;0.90;;;;;;;;;;5010922;28;20190;-62
2022/07/03 14:13:00;;;;;;;1.27;0.73;;;;;;;;;;5016258;28;20186;-64
2022/07/03 14:15:25;;;;;;;5.47;1.00;;;;;;;;;;5017937;28;20220;-66
2022/07/03 14:17:51;;;;;;;1.65;0.65;;;;;;;;;;5014765;28;20214;-66
2022/07/03 14:20:16;;;;;;;1.60;1.00;;;;;;;;;;5017422;28;20268;-63
2022/07/03 14:22:41;;;;;;;3.38;0.82;;;;;;;;;;5015385;28;20641;-62
2022/07/03 14:25:08;;;;;;;3.17;1.60;;;;;;;;;;5016983;28;20434;-63
2022/07/03 14:33:02;;;;;;;3.78;0.82;;;;;;;;;;5018695;28;20851;-63
2022/07/03 14:35:27;;;;;;;1.55;0.85;;;;;;;;;;5013971;28;20276;-63
2022/07/03 14:37:53;;;;;;;1.73;0.90;;;;;;;;;;5016369;28;20237;-62
2022/07/03 14:40:18;;;;;;;1.58;0.80;;;;;;;;;;5017252;28;20185;-69
2022/07/03 14:42:43;;;;;;;2.10;0.93;;;;;;;;;;5012812;28;20209;-62
2022/07/03 14:45:09;;;;;;;4.20;1.00;;;;;;;;;;5016698;28;20185;-64
2022/07/03 14:47:34;;;;;;;1.55;0.82;;;;;;;;;;5016562;28;20225;-64
2022/07/03 14:50:00;;;;;;;2.70;1.20;;;;;;;;;;5015762;28;20194;-63
2022/07/03 14:52:26;;;;;;;3.75;1.38;;;;;;;;;;5015466;28;20217;-63
2022/07/03 14:54:56;;;;;;;2.63;1.05;;;;;;;;;;5015558;28;20216;-67
2022/07/03 14:57:44;;;;;;;3.45;1.15;;;;;;;;;;5014561;28;20193;-63
2022/07/03 15:00:15;;;;;;;2.03;1.00;;;;;;;;;;5017280;28;20182;-63
2022/07/03 15:02:44;;;;;;;3.30;1.08;;;;;;;;;;5013619;28;20193;-64
2022/07/03 15:05:12;;;;;;;4.03;1.73;;;;;;;;;;5016487;28;20537;-64
2022/07/03 15:07:54;;;;;;;1.48;0.85;;;;;;;;;;5016303;28;20689;-63
2022/07/03 15:10:20;;;;;;;2.22;1.00;;;;;;;;;;5015056;28;20190;-63
2022/07/03 15:12:52;;;;;;;1.70;0.80;;;;;;;;;;5013135;28;20192;-65
2022/07/03 15:15:18;;;;;;;1.90;0.90;;;;;;;;;;5014539;28;20701;-64